Time;durP1;ratioP1;P1;durP2;ratioP2;P2;SDS_P1;SDS_P2;PMS_P1;PMS_P2;Temp;Humidity;BMP_temperature;BMP_pressure;BME280_temperature;BME280_humidity;BME280_pressure;Samples;Min_cycle;Max_cycle;Signal;HPM_P1;HPM_P2
2021/12/25 00:04:43;;;;;;;24.77;13.27;;;;;;;1.78;100.00;94500.00;10489815;28;20043;-74
2021/12/25 00:09:43;;;;;;;20.67;11.35;;;;;;;1.71;100.00;94485.00;10490439;28;20074;-77
2021/12/25 00:14:44;;;;;;;22.75;11.60;;;;;;;1.65;100.00;94491.19;10472089;28;20115;-75
2021/12/25 00:19:44;;;;;;;25.17;13.10;;;;;;;1.53;100.00;94493.81;10472138;28;20090;-77
2021/12/25 00:24:45;;;;;;;18.75;10.43;;;;;;;1.70;100.00;94509.06;10439156;28;20490;-76
2021/12/25 00:34:48;;;;;;;20.00;11.40;;;;;;;1.85;100.00;94517.44;10489178;28;20026;-70
2021/12/25 00:39:51;;;;;;;25.10;9.50;;;;;;;2.00;100.00;94511.72;10489686;28;20151;-74
2021/12/25 00:44:51;;;;;;;21.17;10.68;;;;;;;2.01;100.00;94517.84;10471173;28;20090;-76
2021/12/25 00:49:54;;;;;;;23.65;12.23;;;;;;;1.91;100.00;94531.63;10470422;28;20074;-74
2021/12/25 00:54:54;;;;;;;16.67;9.07;;;;;;;1.96;100.00;94504.47;10457423;28;20028;-77
2021/12/25 00:59:55;;;;;;;16.92;9.75;;;;;;;2.04;100.00;94517.41;10473116;28;20799;-75
2021/12/25 01:04:55;;;;;;;16.38;9.13;;;;;;;2.04;100.00;94504.16;10476092;28;20115;-72
2021/12/25 01:09:56;;;;;;;14.27;8.05;;;;;;;2.05;100.00;94506.56;10472769;28;20016;-75
2021/12/25 01:14:59;;;;;;;18.55;8.57;;;;;;;2.07;100.00;94498.41;10475177;28;20016;-79
2021/12/25 01:30:49;;;;;;;19.20;9.68;;;;;;;2.16;100.00;94482.97;10487465;28;20103;-70
2021/12/25 01:51:27;;;;;;;18.75;7.97;;;;;;;1.73;100.00;94494.56;10485907;28;20021;-74
2021/12/25 01:56:28;;;;;;;25.55;9.98;;;;;;;1.56;100.00;94487.22;10467301;28;20493;-73
2021/12/25 02:01:28;;;;;;;13.85;9.00;;;;;;;1.32;100.00;94495.03;10486532;28;20406;-76
2021/12/25 02:06:29;;;;;;;17.90;10.18;;;;;;;1.35;100.00;94480.56;10485580;28;20063;-75
2021/12/25 02:11:29;;;;;;;15.98;8.18;;;;;;;1.45;100.00;94470.28;10451863;28;20028;-76
2021/12/25 02:16:40;;;;;;;18.95;9.88;;;;;;;1.40;100.00;94471.97;10466774;28;20024;-73
2021/12/25 02:21:41;;;;;;;19.90;9.02;;;;;;;1.46;100.00;94463.91;10468127;28;20045;-71
2021/12/25 02:26:44;;;;;;;18.00;9.05;;;;;;;1.52;100.00;94444.50;10467947;28;20063;-76
2021/12/25 02:31:44;;;;;;;17.83;8.27;;;;;;;1.75;100.00;94447.47;10467674;28;20024;-78
2021/12/25 02:36:45;;;;;;;17.45;8.43;;;;;;;1.92;100.00;94464.34;10467784;28;20016;-70
2021/12/25 02:41:45;;;;;;;10.52;6.50;;;;;;;2.05;100.00;94466.81;10467649;28;20359;-73
2021/12/25 02:46:48;;;;;;;18.23;6.85;;;;;;;2.30;100.00;94449.94;10442769;28;20028;-79
2021/12/25 02:51:49;;;;;;;14.85;7.25;;;;;;;2.45;100.00;94467.25;10442157;28;20513;-73
2021/12/25 02:56:50;;;;;;;8.82;5.60;;;;;;;2.54;100.00;94448.09;10442311;28;20028;-78
2021/12/25 03:01:51;;;;;;;14.55;7.03;;;;;;;2.67;100.00;94456.88;10425260;28;20052;-71
2021/12/25 03:06:51;;;;;;;10.48;6.05;;;;;;;2.70;100.00;94453.75;10425367;28;20115;-72
2021/12/25 03:11:52;;;;;;;12.13;6.70;;;;;;;2.79;100.00;94462.19;10441681;28;20085;-74
2021/12/25 03:16:53;;;;;;;17.67;6.10;;;;;;;2.97;100.00;94454.09;10442757;28;20025;-75
2021/12/25 03:21:54;;;;;;;14.32;6.70;;;;;;;3.09;100.00;94456.75;10442417;28;20146;-71
2021/12/25 03:26:56;;;;;;;14.88;6.05;;;;;;;3.12;100.00;94456.25;10442368;28;20095;-80
2021/12/25 03:31:57;;;;;;;14.77;6.60;;;;;;;3.17;100.00;94463.56;10440921;28;20500;-70
2021/12/25 03:36:57;;;;;;;11.50;6.95;;;;;;;3.21;100.00;94459.38;10424938;28;20021;-74
2021/12/25 03:41:58;;;;;;;13.50;7.40;;;;;;;3.19;100.00;94456.94;10441030;28;20062;-74
2021/12/25 03:47:03;;;;;;;12.05;6.15;;;;;;;3.18;100.00;94470.47;10423947;28;20032;-74
2021/12/25 04:03:01;;;;;;;12.10;6.60;;;;;;;3.06;100.00;94457.22;10397351;28;20036;-75
2021/12/25 04:08:07;;;;;;;16.00;6.95;;;;;;;3.15;100.00;94466.41;10440277;28;20040;-74
2021/12/25 04:13:11;;;;;;;13.98;7.32;;;;;;;3.21;100.00;94481.44;10442287;28;20036;-71
2021/12/25 04:18:11;;;;;;;12.23;7.68;;;;;;;3.17;100.00;94467.00;10440938;28;20029;-71
2021/12/25 04:23:18;;;;;;;21.83;8.30;;;;;;;3.21;100.00;94467.31;10448864;28;20445;-70
2021/12/25 04:28:33;;;;;;;13.52;7.72;;;;;;;3.17;100.00;94472.31;10449250;28;20487;-74
2021/12/25 05:05:18;;;;;;;20.77;8.80;;;;;;;3.19;100.00;94523.34;10479634;28;20498;-72
2021/12/25 05:10:18;;;;;;;16.83;8.00;;;;;;;3.22;100.00;94509.63;10461907;28;20028;-73
2021/12/25 05:15:19;;;;;;;14.70;7.93;;;;;;;3.17;100.00;94520.13;10469759;28;20031;-74
2021/12/25 05:20:20;;;;;;;13.32;6.47;;;;;;;3.15;100.00;94494.81;10470420;28;20389;-72
2021/12/25 05:25:20;;;;;;;11.35;7.85;;;;;;;3.04;100.00;94507.06;10452336;28;20086;-74
2021/12/25 05:30:21;;;;;;;12.52;7.10;;;;;;;3.05;100.00;94524.63;10443895;28;20576;-72
2021/12/25 05:35:22;;;;;;;15.48;7.00;;;;;;;3.20;100.00;94529.47;10444961;28;20094;-73
2021/12/25 05:40:24;;;;;;;11.43;6.78;;;;;;;3.17;100.00;94514.81;10448133;28;20111;-80
2021/12/25 05:45:24;;;;;;;16.10;8.38;;;;;;;3.25;100.00;94511.81;10487094;28;20066;-76
2021/12/25 05:50:25;;;;;;;9.82;7.32;;;;;;;3.30;100.00;94515.59;10466884;28;20117;-76
2021/12/25 05:55:26;;;;;;;10.30;6.38;;;;;;;3.36;100.00;94531.44;10445617;28;20048;-78
2021/12/25 06:00:27;;;;;;;10.32;7.03;;;;;;;3.47;100.00;94535.09;10444783;28;20108;-74
2021/12/25 06:05:27;;;;;;;14.15;7.28;;;;;;;3.58;100.00;94547.53;10447607;28;20477;-73
2021/12/25 06:10:28;;;;;;;12.65;6.40;;;;;;;3.71;100.00;94546.50;10485525;28;20478;-78
2021/12/25 06:15:29;;;;;;;11.75;5.28;;;;;;;3.64;100.00;94534.38;10468189;28;20021;-75
2021/12/25 06:20:29;;;;;;;12.43;6.43;;;;;;;3.71;100.00;94533.22;10427631;28;20079;-75
2021/12/25 06:25:30;;;;;;;12.80;6.20;;;;;;;3.88;100.00;94545.75;10426305;28;20082;-76
2021/12/25 06:30:31;;;;;;;13.60;7.18;;;;;;;3.87;100.00;94536.97;10443669;28;20044;-75
2021/12/25 06:35:32;;;;;;;12.57;7.07;;;;;;;3.97;100.00;94535.56;10425800;28;20021;-77
2021/12/25 06:40:32;;;;;;;11.55;6.60;;;;;;;4.11;100.00;94548.31;10457682;28;20044;-75
2021/12/25 06:45:33;;;;;;;12.10;5.78;;;;;;;4.20;100.00;94542.63;10466933;28;20119;-77
2021/12/25 06:50:35;;;;;;;17.30;8.18;;;;;;;4.18;100.00;94542.88;10450379;28;20021;-80
2021/12/25 06:55:35;;;;;;;14.55;6.65;;;;;;;4.31;100.00;94562.25;10455977;28;20052;-74
2021/12/25 07:00:36;;;;;;;15.32;5.82;;;;;;;4.41;100.00;94562.44;10424485;28;20112;-71
2021/12/25 07:05:36;;;;;;;13.00;6.07;;;;;;;4.50;100.00;94570.84;10442341;28;20039;-77
2021/12/25 07:10:36;;;;;;;14.32;6.50;;;;;;;4.57;100.00;94579.50;10458769;28;20024;-73
2021/12/25 07:15:37;;;;;;;16.45;8.70;;;;;;;4.66;100.00;94585.22;10448792;28;20056;-71
2021/12/25 07:20:38;;;;;;;9.85;6.20;;;;;;;4.92;100.00;94594.47;10441442;28;20052;-74
2021/12/25 07:25:38;;;;;;;15.02;9.02;;;;;;;5.05;100.00;94585.34;10427933;28;20029;-79
2021/12/25 07:30:39;;;;;;;17.35;7.28;;;;;;;4.93;100.00;94574.78;10449075;28;20028;-73
2021/12/25 07:35:39;;;;;;;13.18;7.15;;;;;;;4.88;100.00;94562.16;10478399;28;20017;-74
2021/12/25 07:40:39;;;;;;;17.75;7.90;;;;;;;5.16;100.00;94594.31;10463146;28;20577;-73
2021/12/25 07:45:41;;;;;;;24.77;8.55;;;;;;;5.28;100.00;94608.38;10482586;28;20029;-80
2021/12/25 07:50:41;;;;;;;13.38;7.88;;;;;;;5.40;100.00;94595.75;10451192;28;20547;-76
2021/12/25 07:55:50;;;;;;;16.77;7.88;;;;;;;5.67;100.00;94597.75;10469500;28;20834;-78
2021/12/25 08:00:51;;;;;;;;;;;;;;;5.69;100.00;94598.28;10472283;28;20365;-72
2021/12/25 08:05:52;;;;;;;14.27;7.00;;;;;;;5.56;100.00;94599.44;10430328;28;19992;-70
2021/12/25 08:10:52;;;;;;;18.80;9.32;;;;;;;5.52;100.00;94608.19;10430449;28;20120;-73
2021/12/25 08:15:53;;;;;;;17.38;10.18;;;;;;;5.76;100.00;94606.13;10430453;28;20029;-73
2021/12/25 08:20:53;;;;;;;14.80;8.80;;;;;;;6.12;100.00;94594.06;10448802;28;20056;-76
2021/12/25 08:25:53;;;;;;;15.45;8.27;;;;;;;6.88;100.00;94597.84;10449445;28;20031;-72
2021/12/25 08:30:54;;;;;;;18.52;8.90;;;;;;;7.62;100.00;94598.94;10448455;28;20025;-73
2021/12/25 08:35:55;;;;;;;14.93;7.07;;;;;;;8.24;100.00;94585.88;10449473;28;20016;-73
2021/12/25 08:40:56;;;;;;;23.17;7.53;;;;;;;8.51;96.50;94591.09;10448147;28;20021;-72
2021/12/25 08:46:13;;;;;;;15.77;8.23;;;;;;;8.71;95.10;94582.31;10446770;28;20090;-74
2021/12/25 08:51:13;;;;;;;13.15;6.97;;;;;;;9.11;89.63;94582.66;10416364;28;20059;-77
2021/12/25 08:56:14;;;;;;;13.57;6.45;;;;;;;9.13;88.91;94585.06;10447011;28;20019;-69
2021/12/25 09:01:15;;;;;;;13.60;6.55;;;;;;;9.15;87.38;94567.59;10446645;28;20108;-77
2021/12/25 09:06:15;;;;;;;16.25;6.82;;;;;;;9.53;86.60;94564.63;10444542;28;20025;-73
2021/12/25 09:11:17;;;;;;;16.00;6.70;;;;;;;10.39;79.18;94552.03;10445389;28;20025;-70
2021/12/25 09:16:18;;;;;;;16.15;6.93;;;;;;;11.18;69.85;94542.44;10448156;28;20021;-73
2021/12/25 09:21:18;;;;;;;10.43;5.60;;;;;;;11.80;67.70;94527.31;10446974;28;20057;-76
2021/12/25 09:26:19;;;;;;;10.07;4.78;;;;;;;12.51;60.15;94521.38;10468938;28;20048;-76
2021/12/25 09:31:20;;;;;;;10.73;4.60;;;;;;;12.80;56.99;94517.75;10461827;28;20039;-71
2021/12/25 09:36:23;;;;;;;10.60;4.43;;;;;;;12.74;56.86;94517.00;10443614;28;20026;-77
2021/12/25 09:41:24;;;;;;;13.95;5.28;;;;;;;12.37;57.35;94502.41;10434028;28;20028;-77
2021/12/25 09:46:25;;;;;;;10.35;5.22;;;;;;;12.51;57.05;94509.78;10470148;28;20021;-76
2021/12/25 09:51:26;;;;;;;11.18;5.63;;;;;;;12.55;57.13;94500.03;10468063;28;20029;-76
2021/12/25 09:56:30;;;;;;;12.82;6.30;;;;;;;12.17;58.15;94494.59;10443318;28;20020;-75
2021/12/25 10:01:41;;;;;;;11.65;6.53;;;;;;;12.28;58.55;94480.72;10444148;28;20406;-73
2021/12/25 10:06:44;;;;;;;14.85;6.55;;;;;;;14.04;54.20;94475.13;10441721;28;20025;-73
2021/12/25 10:12:07;;;;;;;15.43;6.28;;;;;;;17.63;43.47;94468.53;10425667;28;20403;-74
2021/12/25 10:17:24;;;;;;;13.32;7.65;;;;;;;19.89;37.43;94465.34;10465622;28;20493;-73
2021/12/25 10:22:24;;;;;;;16.55;7.65;;;;;;;21.47;35.24;94450.16;10465947;28;20090;-72
2021/12/25 10:27:25;;;;;;;15.38;7.50;;;;;;;22.33;32.50;94451.59;10466858;28;20061;-77
2021/12/25 10:32:27;;;;;;;13.80;7.35;;;;;;;23.98;30.42;94436.16;10425201;28;20028;-79
2021/12/25 10:37:27;;;;;;;11.45;6.43;;;;;;;23.68;29.85;94431.28;10442336;28;20045;-69
2021/12/25 10:42:33;;;;;;;9.05;5.18;;;;;;;23.37;30.24;94425.66;10463819;28;20400;-72
2021/12/25 10:47:34;;;;;;;14.95;7.22;;;;;;;21.23;32.42;94420.25;10432447;28;20063;-73
2021/12/25 10:52:42;;;;;;;13.35;6.85;;;;;;;17.89;37.05;94416.81;10465357;28;20379;-76
2021/12/25 10:57:46;;;;;;;14.18;6.80;;;;;;;14.64;43.41;94425.50;10424057;28;20491;-76
2021/12/25 11:03:00;;;;;;;17.10;7.15;;;;;;;13.96;46.12;94428.03;10439485;28;20020;-73
2021/12/25 11:08:09;;;;;;;17.58;8.32;;;;;;;13.15;50.21;94429.25;10427011;28;20499;-76
2021/12/25 11:13:34;;;;;;;21.63;9.85;;;;;;;12.14;54.44;94420.56;10424679;28;20124;-71
2021/12/25 11:19:27;;;;;;;21.73;10.10;;;;;;;11.26;61.94;94410.81;10423424;28;20033;-74
2021/12/25 11:24:24;;;;;;;18.00;8.98;;;;;;;10.82;67.90;94403.69;10440057;28;20057;-74
2021/12/25 11:29:28;;;;;;;25.05;10.00;;;;;;;10.51;71.90;94392.41;10447756;28;20031;-73
2021/12/25 11:34:29;;;;;;;21.92;10.13;;;;;;;10.07;77.28;94399.38;10448681;28;20135;-78
2021/12/25 11:39:31;;;;;;;20.63;8.32;;;;;;;9.96;79.75;94387.91;10463375;28;20059;-73
2021/12/25 11:44:42;;;;;;;23.60;10.57;;;;;;;9.71;83.83;94380.78;10472539;28;20024;-78
2021/12/25 11:50:05;;;;;;;16.25;7.80;;;;;;;9.59;84.31;94367.72;10453342;28;20167;-72
2021/12/25 12:00:43;;;;;;;14.70;6.53;;;;;;;9.19;89.20;94369.47;10426972;28;20399;-74
2021/12/25 12:05:48;;;;;;;24.52;8.35;;;;;;;9.28;91.55;94373.19;10458596;28;20032;-73
2021/12/25 12:10:51;;;;;;;12.02;6.53;;;;;;;9.23;90.77;94383.94;10435981;28;20025;-74
2021/12/25 12:15:59;;;;;;;13.05;5.70;;;;;;;9.34;89.65;94376.66;10452214;28;20029;-77
2021/12/25 12:21:09;;;;;;;13.98;6.63;;;;;;;9.41;90.05;94369.91;10448917;28;20507;-73
2021/12/25 12:26:13;;;;;;;17.13;7.57;;;;;;;9.50;90.83;94375.53;10471246;28;20028;-76
2021/12/25 12:31:36;;;;;;;17.38;8.00;;;;;;;9.83;90.27;94375.09;10470589;28;20025;-73
2021/12/25 12:36:36;;;;;;;11.80;6.78;;;;;;;9.90;86.09;94386.34;10454694;28;20095;-72
2021/12/25 12:41:43;;;;;;;13.98;6.70;;;;;;;10.00;83.70;94372.84;10470040;28;20550;-76
2021/12/25 12:46:50;;;;;;;16.35;7.22;;;;;;;10.07;83.48;94373.34;10455636;28;20498;-76
2021/12/25 12:52:09;;;;;;;14.55;7.38;;;;;;;10.11;81.88;94376.28;10471953;28;20620;-73
2021/12/25 12:57:17;;;;;;;16.70;7.20;;;;;;;10.14;81.72;94378.38;10488194;28;20033;-71
2021/12/25 13:02:19;;;;;;;16.37;7.63;;;;;;;10.20;80.37;94382.66;10469448;28;20376;-81
2021/12/25 13:07:21;;;;;;;17.70;7.80;;;;;;;9.97;83.85;94380.66;10469132;28;20028;-72
2021/12/25 13:12:41;;;;;;;13.65;6.10;;;;;;;10.17;86.25;94377.03;10468830;28;20021;-73
2021/12/25 13:18:04;;;;;;;19.60;7.13;;;;;;;10.09;83.63;94387.28;10489072;28;20440;-76
2021/12/25 13:23:15;;;;;;;13.73;6.20;;;;;;;9.86;84.31;94379.91;10467057;28;20429;-72
2021/12/25 13:28:17;;;;;;;15.90;7.45;;;;;;;9.87;85.95;94384.22;10469648;28;20025;-72
2021/12/25 13:33:21;;;;;;;13.38;6.25;;;;;;;9.75;86.27;94388.03;10415774;28;20402;-74
2021/12/25 13:38:22;;;;;;;9.15;5.72;;;;;;;9.83;86.73;94372.41;10443870;28;20029;-75
2021/12/25 13:43:23;;;;;;;15.30;5.40;;;;;;;9.91;85.28;94382.56;10446799;28;20370;-74
2021/12/25 13:48:23;;;;;;;18.45;5.32;;;;;;;9.71;86.34;94383.47;10433696;28;20017;-73
2021/12/25 13:53:28;;;;;;;12.82;5.97;;;;;;;9.74;87.08;94370.31;10460353;28;20024;-71
2021/12/25 13:58:29;;;;;;;14.18;5.95;;;;;;;9.78;86.92;94354.44;10467571;28;20423;-75
2021/12/25 14:03:30;;;;;;;14.63;6.45;;;;;;;9.69;87.87;94358.81;10487773;28;20029;-73
2021/12/25 14:08:31;;;;;;;14.75;6.88;;;;;;;9.57;89.83;94353.75;10461417;28;20046;-72
2021/12/25 14:13:35;;;;;;;17.60;7.35;;;;;;;9.30;91.95;94354.94;10490173;28;20021;-76
2021/12/25 14:18:37;;;;;;;20.65;7.50;;;;;;;9.03;95.05;94337.34;10496277;28;20028;-78
2021/12/25 14:23:38;;;;;;;17.33;6.57;;;;;;;8.98;96.26;94349.97;10465133;28;20091;-71
2021/12/25 14:28:38;;;;;;;21.65;7.00;;;;;;;8.83;97.99;94356.16;10449851;28;20103;-73
2021/12/25 14:33:53;;;;;;;25.05;8.57;;;;;;;8.51;100.00;94363.44;10466258;28;20036;-75
2021/12/25 14:38:53;;;;;;;16.95;8.00;;;;;;;8.37;100.00;94371.19;10482989;28;20024;-73
2021/12/25 14:43:54;;;;;;;20.88;8.40;;;;;;;8.14;100.00;94374.38;10440531;28;20421;-73
2021/12/25 14:49:03;;;;;;;19.55;8.77;;;;;;;8.00;100.00;94369.53;10461033;28;20470;-78
2021/12/25 14:54:06;;;;;;;25.83;11.30;;;;;;;7.93;100.00;94376.25;10463417;28;20044;-79
2021/12/25 14:59:15;;;;;;;20.48;8.25;;;;;;;7.42;100.00;94377.69;10440658;28;20036;-75
2021/12/25 15:04:19;;;;;;;29.35;10.70;;;;;;;7.23;100.00;94379.22;10415483;28;20029;-76
2021/12/25 15:09:44;;;;;;;41.00;10.70;;;;;;;7.11;100.00;94384.78;10440808;28;20063;-77
2021/12/25 15:14:49;;;;;;;22.75;10.13;;;;;;;6.99;100.00;94385.78;10422100;28;20036;-73
2021/12/25 15:20:01;;;;;;;42.53;13.77;;;;;;;6.96;100.00;94388.16;10442383;28;20036;-78
2021/12/25 15:25:14;;;;;;;25.00;11.25;;;;;;;6.86;100.00;94393.47;10438439;28;20083;-78
2021/12/25 15:30:18;;;;;;;39.97;15.05;;;;;;;6.93;100.00;94386.81;10451148;28;20025;-84
2021/12/25 15:35:34;;;;;;;28.10;12.52;;;;;;;6.73;100.00;94390.19;10465247;28;20485;-74
2021/12/25 15:40:49;;;;;;;24.92;11.07;;;;;;;6.74;100.00;94398.97;10444102;28;20100;-74
2021/12/25 15:45:50;;;;;;;28.42;11.98;;;;;;;6.69;100.00;94397.09;10441004;28;20566;-77
2021/12/25 15:50:51;;;;;;;28.83;11.30;;;;;;;6.59;100.00;94392.47;10466045;28;20036;-79
2021/12/25 15:55:51;;;;;;;20.05;9.23;;;;;;;6.55;100.00;94393.25;10467308;28;20591;-78
2021/12/25 16:00:53;;;;;;;27.38;11.93;;;;;;;6.49;100.00;94384.41;10464466;28;20064;-73
2021/12/25 16:05:53;;;;;;;33.60;12.85;;;;;;;6.53;100.00;94398.84;10468215;28;20042;-73
2021/12/25 16:10:56;;;;;;;34.10;13.43;;;;;;;6.33;100.00;94404.81;10484324;28;20035;-77
2021/12/25 16:15:57;;;;;;;26.90;13.35;;;;;;;6.28;100.00;94402.94;10480320;28;20050;-71
2021/12/25 16:20:58;;;;;;;31.50;11.13;;;;;;;6.31;100.00;94404.28;10478558;28;20053;-78
2021/12/25 16:25:58;;;;;;;23.73;9.98;;;;;;;5.94;100.00;94399.66;10472815;28;20127;-75
2021/12/25 16:31:00;;;;;;;28.48;12.25;;;;;;;5.88;100.00;94406.78;10472385;28;20032;-73
2021/12/25 16:36:02;;;;;;;25.00;11.73;;;;;;;5.85;100.00;94409.97;10470704;28;20048;-79
2021/12/25 16:41:04;;;;;;;28.52;12.30;;;;;;;5.63;100.00;94402.78;10447393;28;20514;-75
2021/12/25 16:46:08;;;;;;;68.25;20.23;;;;;;;5.66;100.00;94401.50;10446338;28;20033;-76
2021/12/25 16:51:09;;;;;;;31.38;14.55;;;;;;;5.51;100.00;94391.47;10415099;28;20029;-78
2021/12/25 16:56:10;;;;;;;41.10;18.60;;;;;;;5.65;100.00;94395.38;10487758;28;20039;-73
2021/12/25 17:01:11;;;;;;;27.27;13.68;;;;;;;5.68;100.00;94402.06;10471092;28;20024;-77
2021/12/25 17:06:14;;;;;;;24.52;13.75;;;;;;;5.67;100.00;94405.78;10424035;28;20040;-76
2021/12/25 17:11:15;;;;;;;35.13;14.50;;;;;;;5.67;100.00;94402.31;10446863;28;20418;-79
2021/12/25 17:16:16;;;;;;;35.38;15.38;;;;;;;5.47;100.00;94396.50;10445750;28;20021;-73
2021/12/25 17:21:16;;;;;;;32.03;13.63;;;;;;;5.50;100.00;94387.22;10444963;28;20087;-80
2021/12/25 17:26:17;;;;;;;42.40;16.27;;;;;;;5.52;100.00;94389.63;10428896;28;20021;-78
2021/12/25 17:31:17;;;;;;;35.10;15.00;;;;;;;5.58;100.00;94388.59;10462393;28;20410;-79
2021/12/25 17:36:21;;;;;;;28.02;12.73;;;;;;;5.56;100.00;94406.72;10442974;28;20028;-73
2021/12/25 17:42:09;;;;;;;35.95;12.45;;;;;;;5.43;100.00;94410.59;10447408;28;20021;-73
2021/12/25 17:46:44;;;;;;;32.58;14.82;;;;;;;5.38;100.00;94415.84;10437870;28;20033;-74
2021/12/25 17:51:45;;;;;;;33.70;14.05;;;;;;;5.06;100.00;94411.19;10500559;22;20048;-74
2021/12/25 17:56:45;;;;;;;35.78;17.23;;;;;;;4.94;100.00;94401.44;10518593;28;20021;-73
2021/12/25 18:01:46;;;;;;;42.47;16.80;;;;;;;4.96;100.00;94398.53;10505048;28;20615;-74
2021/12/25 18:06:47;;;;;;;42.50;18.30;;;;;;;4.66;100.00;94393.59;10527538;28;20028;-77
2021/12/25 18:11:47;;;;;;;37.60;17.35;;;;;;;4.67;100.00;94396.00;10505192;28;20039;-74
2021/12/25 18:16:48;;;;;;;43.67;17.25;;;;;;;4.73;100.00;94394.22;10500692;28;20035;-79
2021/12/25 18:21:50;;;;;;;42.65;18.58;;;;;;;4.79;100.00;94378.06;10500531;28;20036;-77
2021/12/25 18:26:50;;;;;;;45.42;18.60;;;;;;;4.73;100.00;94386.22;10500407;28;20105;-72
2021/12/25 18:31:53;;;;;;;44.40;17.60;;;;;;;4.73;100.00;94380.91;10525111;28;20032;-77
2021/12/25 18:36:53;;;;;;;47.45;19.10;;;;;;;4.65;100.00;94371.50;10529034;28;20039;-76
2021/12/25 18:41:54;;;;;;;42.15;17.13;;;;;;;4.78;100.00;94386.31;10524149;28;20035;-70
2021/12/25 18:46:56;;;;;;;42.17;18.83;;;;;;;4.58;100.00;94381.50;10524696;28;20036;-77
2021/12/25 18:51:56;;;;;;;32.55;16.02;;;;;;;4.73;100.00;94391.56;10523026;28;20051;-73
2021/12/25 18:56:57;;;;;;;38.42;16.73;;;;;;;4.32;100.00;94406.91;10501367;28;20382;-72
2021/12/25 19:01:59;;;;;;;39.85;20.55;;;;;;;4.36;100.00;94400.06;10516035;28;20136;-73
2021/12/25 19:07:00;;;;;;;38.55;17.67;;;;;;;4.31;100.00;94403.44;10569074;22;20052;-72
2021/12/25 19:12:02;;;;;;;40.42;17.42;;;;;;;4.18;100.00;94393.94;10464315;28;20094;-72
2021/12/25 19:17:03;;;;;;;37.85;17.13;;;;;;;4.30;100.00;94399.19;10465804;28;20044;-74
2021/12/25 19:22:04;;;;;;;50.92;19.13;;;;;;;4.11;100.00;94387.97;10467955;28;20028;-72
2021/12/25 19:27:07;;;;;;;36.08;17.25;;;;;;;4.05;100.00;94391.59;10465274;28;20375;-78
2021/12/25 19:32:07;;;;;;;38.00;18.15;;;;;;;3.88;100.00;94395.03;10464115;28;20036;-74
2021/12/25 19:37:09;;;;;;;39.22;18.02;;;;;;;3.92;100.00;94398.84;10443153;28;20087;-72
2021/12/25 19:42:10;;;;;;;34.72;19.67;;;;;;;3.85;100.00;94400.00;10418238;28;20081;-72
2021/12/25 19:47:12;;;;;;;36.35;17.88;;;;;;;3.88;100.00;94403.00;10422169;28;20110;-82
2021/12/25 19:52:13;;;;;;;39.88;19.02;;;;;;;3.86;100.00;94404.28;10447769;28;20060;-71
2021/12/25 19:57:15;;;;;;;33.42;17.95;;;;;;;3.86;100.00;94409.59;10439403;28;20055;-77
2021/12/25 20:02:16;;;;;;;21.02;12.35;;;;;;;3.93;100.00;94392.47;10433935;28;20580;-76
2021/12/25 20:07:17;;;;;;;26.20;15.00;;;;;;;3.93;100.00;94387.16;10432037;28;20045;-73
2021/12/25 20:12:17;;;;;;;37.42;15.85;;;;;;;3.93;100.00;94389.00;10422284;28;20530;-76
2021/12/25 20:17:18;;;;;;;28.70;14.98;;;;;;;4.04;100.00;94382.78;10445030;28;20016;-78
2021/12/25 20:22:19;;;;;;;30.15;14.27;;;;;;;4.14;100.00;94374.19;10429859;28;20079;-73
2021/12/25 20:27:19;;;;;;;35.60;14.88;;;;;;;3.78;100.00;94368.25;10413153;28;20128;-73
2021/12/25 20:32:20;;;;;;;24.38;13.77;;;;;;;3.84;100.00;94385.13;10418050;28;20020;-73
2021/12/25 20:37:20;;;;;;;29.40;14.85;;;;;;;3.67;100.00;94393.88;10446086;28;20482;-70
2021/12/25 20:42:22;;;;;;;25.75;15.73;;;;;;;3.62;100.00;94387.66;10428293;28;20025;-72
2021/12/25 20:47:23;;;;;;;32.53;15.23;;;;;;;3.58;100.00;94377.47;10428124;28;20431;-74
2021/12/25 20:52:23;;;;;;;34.42;16.35;;;;;;;3.56;100.00;94384.91;10474986;28;20040;-71
2021/12/25 20:57:24;;;;;;;36.63;16.92;;;;;;;3.51;100.00;94390.09;10469823;28;20115;-75
2021/12/25 21:02:25;;;;;;;30.13;15.77;;;;;;;3.39;100.00;94386.69;10451664;28;20046;-74
2021/12/25 21:07:27;;;;;;;28.23;16.00;;;;;;;3.08;100.00;94367.50;10452824;28;20843;-72
2021/12/25 21:12:27;;;;;;;33.28;14.23;;;;;;;3.06;100.00;94396.94;10469003;28;20028;-71
2021/12/25 21:17:28;;;;;;;30.63;16.88;;;;;;;3.25;100.00;94364.91;10444569;28;20025;-70
2021/12/25 21:22:45;;;;;;;33.70;15.57;;;;;;;3.14;100.00;94377.19;10427787;28;20689;-71
2021/12/25 21:27:49;;;;;;;32.03;15.90;;;;;;;3.21;100.00;94400.94;10433769;28;20573;-70
2021/12/25 21:32:57;;;;;;;31.35;14.88;;;;;;;3.21;100.00;94385.84;10459526;28;20021;-75
2021/12/25 21:37:59;;;;;;;36.67;17.70;;;;;;;3.32;100.00;94378.06;10471380;28;20394;-72
2021/12/25 21:42:59;;;;;;;30.50;15.68;;;;;;;3.51;100.00;94392.75;10426635;28;20032;-71
2021/12/25 21:48:02;;;;;;;33.92;16.70;;;;;;;3.58;100.00;94379.34;10443279;28;20031;-80
2021/12/25 21:53:05;;;;;;;31.75;16.20;;;;;;;3.74;100.00;94362.63;10451256;28;20037;-77
2021/12/25 21:58:08;;;;;;;37.30;17.52;;;;;;;3.90;100.00;94370.88;10443581;28;20055;-72
2021/12/25 22:03:12;;;;;;;32.78;16.73;;;;;;;3.99;100.00;94364.13;10444165;28;20399;-72
2021/12/25 22:08:15;;;;;;;34.28;15.43;;;;;;;4.10;100.00;94386.34;10427333;28;20534;-72
2021/12/25 22:13:18;;;;;;;34.30;16.33;;;;;;;4.03;100.00;94389.19;10425744;28;20123;-72
2021/12/25 22:18:22;;;;;;;25.70;13.65;;;;;;;3.90;100.00;94336.31;10426420;28;20024;-71
2021/12/25 22:23:29;;;;;;;34.30;16.48;;;;;;;3.72;100.00;94385.19;10407832;28;20382;-74
2021/12/25 22:28:30;;;;;;;30.35;14.32;;;;;;;3.80;100.00;94360.06;10425213;28;20102;-75
2021/12/25 22:33:31;;;;;;;28.02;14.07;;;;;;;3.88;100.00;94373.78;10470204;28;20491;-73
2021/12/25 22:38:32;;;;;;;30.77;15.30;;;;;;;3.94;100.00;94379.97;10441241;28;20481;-76
2021/12/25 22:43:33;;;;;;;31.85;16.23;;;;;;;3.93;100.00;94360.56;10408882;28;20027;-71
2021/12/25 22:48:33;;;;;;;29.25;14.90;;;;;;;4.03;100.00;94385.69;10442400;28;20021;-72
2021/12/25 22:53:34;;;;;;;27.40;14.30;;;;;;;4.15;100.00;94357.19;10443662;28;20028;-70
2021/12/25 22:58:35;;;;;;;33.03;14.93;;;;;;;4.33;100.00;94373.94;10440899;28;20474;-75
2021/12/25 23:03:38;;;;;;;32.75;15.70;;;;;;;4.28;100.00;94361.34;10423945;28;20031;-76
2021/12/25 23:08:50;;;;;;;33.83;15.80;;;;;;;4.35;100.00;94354.00;10423996;28;20045;-78
2021/12/25 23:13:53;;;;;;;33.17;15.00;;;;;;;4.42;100.00;94343.22;10425271;28;20059;-77
2021/12/25 23:18:54;;;;;;;28.40;14.32;;;;;;;4.33;100.00;94361.44;10405758;28;20032;-76
2021/12/25 23:23:56;;;;;;;33.28;16.33;;;;;;;4.40;100.00;94342.66;10425054;28;20115;-76
2021/12/25 23:28:57;;;;;;;39.35;16.67;;;;;;;4.38;100.00;94355.38;10432681;28;20111;-76
2021/12/25 23:33:58;;;;;;;25.58;13.35;;;;;;;4.56;100.00;94341.84;10483727;28;20040;-75
2021/12/25 23:39:00;;;;;;;38.08;14.38;;;;;;;4.55;100.00;94361.50;10486138;28;20033;-81
2021/12/25 23:44:06;;;;;;;33.47;13.77;;;;;;;4.70;100.00;94362.75;10433336;28;20483;-72
2021/12/25 23:49:07;;;;;;;28.73;12.77;;;;;;;4.76;100.00;94356.47;10453398;28;20226;-76
2021/12/25 23:54:09;;;;;;;29.08;14.02;;;;;;;4.67;100.00;94337.44;10472647;28;20040;-73
2021/12/25 23:59:10;;;;;;;23.52;13.02;;;;;;;4.52;100.00;94351.34;10472732;28;20039;-71
